sensor_id;sensor_type;location;lat;lon;timestamp;temperature;humidity
56322;DHT22;42227;6.376;-10.782;2023-05-21T00:00:50;27.00;70.80
56322;DHT22;42227;6.376;-10.782;2023-05-21T00:03:28;26.80;72.60
56322;DHT22;42227;6.376;-10.782;2023-05-21T00:05:57;26.60;73.40
56322;DHT22;42227;6.376;-10.782;2023-05-21T00:08:26;26.80;74.00
56322;DHT22;42227;6.376;-10.782;2023-05-21T00:10:55;27.00;72.80
56322;DHT22;42227;6.376;-10.782;2023-05-21T00:13:23;27.10;70.80
56322;DHT22;42227;6.376;-10.782;2023-05-21T00:15:52;27.20;70.20
56322;DHT22;42227;6.376;-10.782;2023-05-21T00:18:20;26.90;70.00
56322;DHT22;42227;6.376;-10.782;2023-05-21T00:20:52;26.70;71.80
56322;DHT22;42227;6.376;-10.782;2023-05-21T00:23:20;26.50;73.30
56322;DHT22;42227;6.376;-10.782;2023-05-21T00:25:49;26.50;74.20
56322;DHT22;42227;6.376;-10.782;2023-05-21T00:28:17;26.60;74.90
56322;DHT22;42227;6.376;-10.782;2023-05-21T00:30:45;26.80;74.50
56322;DHT22;42227;6.376;-10.782;2023-05-21T00:33:14;26.90;72.20
56322;DHT22;42227;6.376;-10.782;2023-05-21T00:35:43;27.00;72.40
56322;DHT22;42227;6.376;-10.782;2023-05-21T00:38:11;26.70;72.10
56322;DHT22;42227;6.376;-10.782;2023-05-21T00:40:39;26.50;74.00
56322;DHT22;42227;6.376;-10.782;2023-05-21T00:43:09;26.40;75.40
56322;DHT22;42227;6.376;-10.782;2023-05-21T00:45:42;26.30;76.90
56322;DHT22;42227;6.376;-10.782;2023-05-21T00:48:12;26.50;76.60
56322;DHT22;42227;6.376;-10.782;2023-05-21T00:50:41;26.50;75.50
56322;DHT22;42227;6.376;-10.782;2023-05-21T00:53:10;26.50;75.30
56322;DHT22;42227;6.376;-10.782;2023-05-21T00:55:39;26.40;76.20
56322;DHT22;42227;6.376;-10.782;2023-05-21T00:58:07;26.50;73.40
56322;DHT22;42227;6.376;-10.782;2023-05-21T01:00:36;26.30;74.70
56322;DHT22;42227;6.376;-10.782;2023-05-21T01:03:05;26.30;74.90
56322;DHT22;42227;6.376;-10.782;2023-05-21T01:05:34;26.30;75.00
56322;DHT22;42227;6.376;-10.782;2023-05-21T01:08:03;26.20;75.60
56322;DHT22;42227;6.376;-10.782;2023-05-21T01:10:32;26.50;75.00
56322;DHT22;42227;6.376;-10.782;2023-05-21T01:13:01;26.60;73.20
56322;DHT22;42227;6.376;-10.782;2023-05-21T01:15:30;26.70;72.90
56322;DHT22;42227;6.376;-10.782;2023-05-21T01:17:58;26.70;71.50
56322;DHT22;42227;6.376;-10.782;2023-05-21T01:20:29;26.30;73.50
56322;DHT22;42227;6.376;-10.782;2023-05-21T01:22:57;26.30;74.80
56322;DHT22;42227;6.376;-10.782;2023-05-21T01:25:26;26.10;75.60
56322;DHT22;42227;6.376;-10.782;2023-05-21T01:27:54;26.10;77.00
56322;DHT22;42227;6.376;-10.782;2023-05-21T01:30:24;26.30;77.30
56322;DHT22;42227;6.376;-10.782;2023-05-21T01:32:59;26.50;75.90
56322;DHT22;42227;6.376;-10.782;2023-05-21T01:35:37;26.50;74.60
56322;DHT22;42227;6.376;-10.782;2023-05-21T01:40:57;26.10;76.20
56322;DHT22;42227;6.376;-10.782;2023-05-21T01:43:27;25.90;78.60
56322;DHT22;42227;6.376;-10.782;2023-05-21T01:45:58;25.70;80.10
56322;DHT22;42227;6.376;-10.782;2023-05-21T01:48:28;25.60;81.50
56322;DHT22;42227;6.376;-10.782;2023-05-21T01:51:02;25.60;82.00
56322;DHT22;42227;6.376;-10.782;2023-05-21T01:53:31;25.90;82.00
56322;DHT22;42227;6.376;-10.782;2023-05-21T01:56:00;26.20;79.00
56322;DHT22;42227;6.376;-10.782;2023-05-21T01:58:28;26.00;78.70
56322;DHT22;42227;6.376;-10.782;2023-05-21T02:00:57;25.80;79.60
56322;DHT22;42227;6.376;-10.782;2023-05-21T02:03:26;25.70;79.30
56322;DHT22;42227;6.376;-10.782;2023-05-21T02:05:55;25.70;80.30
56322;DHT22;42227;6.376;-10.782;2023-05-21T02:08:24;25.70;80.20
56322;DHT22;42227;6.376;-10.782;2023-05-21T02:10:54;26.00;79.90
56322;DHT22;42227;6.376;-10.782;2023-05-21T02:13:23;26.30;76.90
56322;DHT22;42227;6.376;-10.782;2023-05-21T02:15:53;26.50;75.20
56322;DHT22;42227;6.376;-10.782;2023-05-21T02:18:22;26.20;75.00
56322;DHT22;42227;6.376;-10.782;2023-05-21T02:20:51;26.00;76.70
56322;DHT22;42227;6.376;-10.782;2023-05-21T02:23:28;25.80;77.40
56322;DHT22;42227;6.376;-10.782;2023-05-21T02:25:57;25.80;78.60
56322;DHT22;42227;6.376;-10.782;2023-05-21T02:28:25;25.90;78.90
56322;DHT22;42227;6.376;-10.782;2023-05-21T02:30:54;26.00;77.90
56322;DHT22;42227;6.376;-10.782;2023-05-21T02:33:22;26.20;76.60
56322;DHT22;42227;6.376;-10.782;2023-05-21T02:35:51;26.30;74.40
56322;DHT22;42227;6.376;-10.782;2023-05-21T02:38:19;26.10;75.00
56322;DHT22;42227;6.376;-10.782;2023-05-21T02:40:50;25.90;76.40
56322;DHT22;42227;6.376;-10.782;2023-05-21T02:43:19;25.80;77.50
56322;DHT22;42227;6.376;-10.782;2023-05-21T02:45:47;25.80;78.40
56322;DHT22;42227;6.376;-10.782;2023-05-21T02:48:16;26.10;77.80
56322;DHT22;42227;6.376;-10.782;2023-05-21T02:50:44;26.30;75.80
56322;DHT22;42227;6.376;-10.782;2023-05-21T02:53:13;26.40;75.40
56322;DHT22;42227;6.376;-10.782;2023-05-21T02:55:41;26.40;73.80
56322;DHT22;42227;6.376;-10.782;2023-05-21T02:58:10;26.10;75.10
56322;DHT22;42227;6.376;-10.782;2023-05-21T03:00:38;25.90;77.00
56322;DHT22;42227;6.376;-10.782;2023-05-21T03:03:07;25.80;77.90
56322;DHT22;42227;6.376;-10.782;2023-05-21T03:05:35;25.80;79.40
56322;DHT22;42227;6.376;-10.782;2023-05-21T03:08:04;26.00;80.30
56322;DHT22;42227;6.376;-10.782;2023-05-21T03:10:33;26.30;78.50
56322;DHT22;42227;6.376;-10.782;2023-05-21T03:13:01;26.30;77.00
56322;DHT22;42227;6.376;-10.782;2023-05-21T03:15:30;26.10;76.50
56322;DHT22;42227;6.376;-10.782;2023-05-21T03:18:00;25.90;77.50
56322;DHT22;42227;6.376;-10.782;2023-05-21T03:20:29;25.80;78.20
56322;DHT22;42227;6.376;-10.782;2023-05-21T03:22:57;25.70;78.30
56322;DHT22;42227;6.376;-10.782;2023-05-21T03:25:25;25.90;78.70
56322;DHT22;42227;6.376;-10.782;2023-05-21T03:27:54;26.10;76.20
56322;DHT22;42227;6.376;-10.782;2023-05-21T03:30:43;26.30;74.80
56322;DHT22;42227;6.376;-10.782;2023-05-21T03:33:29;26.20;73.60
56322;DHT22;42227;6.376;-10.782;2023-05-21T03:36:00;25.90;75.60
56322;DHT22;42227;6.376;-10.782;2023-05-21T03:38:33;25.80;76.90
56322;DHT22;42227;6.376;-10.782;2023-05-21T03:41:05;25.70;77.80
56322;DHT22;42227;6.376;-10.782;2023-05-21T03:43:33;25.50;79.00
56322;DHT22;42227;6.376;-10.782;2023-05-21T03:46:02;25.50;79.40
56322;DHT22;42227;6.376;-10.782;2023-05-21T03:48:56;25.60;79.90
56322;DHT22;42227;6.376;-10.782;2023-05-21T03:51:27;25.50;80.40
56322;DHT22;42227;6.376;-10.782;2023-05-21T03:53:57;25.30;81.30
56322;DHT22;42227;6.376;-10.782;2023-05-21T03:56:25;25.30;82.60
56322;DHT22;42227;6.376;-10.782;2023-05-21T03:58:54;25.30;83.50
56322;DHT22;42227;6.376;-10.782;2023-05-21T04:01:22;25.30;83.80
56322;DHT22;42227;6.376;-10.782;2023-05-21T04:03:52;25.30;85.00
56322;DHT22;42227;6.376;-10.782;2023-05-21T04:06:23;25.60;84.50
56322;DHT22;42227;6.376;-10.782;2023-05-21T04:08:51;25.80;83.30
56322;DHT22;42227;6.376;-10.782;2023-05-21T04:11:20;25.80;81.10
56322;DHT22;42227;6.376;-10.782;2023-05-21T04:13:48;25.60;81.80
56322;DHT22;42227;6.376;-10.782;2023-05-21T04:16:17;25.40;83.60
56322;DHT22;42227;6.376;-10.782;2023-05-21T04:18:46;25.30;84.60
56322;DHT22;42227;6.376;-10.782;2023-05-21T04:21:15;25.40;85.70
56322;DHT22;42227;6.376;-10.782;2023-05-21T04:23:44;25.50;83.30
56322;DHT22;42227;6.376;-10.782;2023-05-21T04:26:32;25.70;83.80
56322;DHT22;42227;6.376;-10.782;2023-05-21T04:29:02;25.60;80.40
56322;DHT22;42227;6.376;-10.782;2023-05-21T04:31:31;25.30;82.20
56322;DHT22;42227;6.376;-10.782;2023-05-21T04:34:02;25.30;83.60
56322;DHT22;42227;6.376;-10.782;2023-05-21T04:36:31;25.10;84.60
56322;DHT22;42227;6.376;-10.782;2023-05-21T04:38:59;25.10;86.10
56322;DHT22;42227;6.376;-10.782;2023-05-21T04:41:28;25.50;86.20
56322;DHT22;42227;6.376;-10.782;2023-05-21T04:43:56;25.60;83.10
56322;DHT22;42227;6.376;-10.782;2023-05-21T04:46:28;25.80;81.20
56322;DHT22;42227;6.376;-10.782;2023-05-21T04:48:57;25.70;79.40
56322;DHT22;42227;6.376;-10.782;2023-05-21T04:51:25;25.50;80.40
56322;DHT22;42227;6.376;-10.782;2023-05-21T04:53:54;25.30;81.20
56322;DHT22;42227;6.376;-10.782;2023-05-21T04:56:23;25.20;82.30
56322;DHT22;42227;6.376;-10.782;2023-05-21T04:58:52;25.20;83.00
56322;DHT22;42227;6.376;-10.782;2023-05-21T05:01:22;25.50;83.10
56322;DHT22;42227;6.376;-10.782;2023-05-21T05:03:52;25.70;80.00
56322;DHT22;42227;6.376;-10.782;2023-05-21T05:06:21;25.90;79.30
56322;DHT22;42227;6.376;-10.782;2023-05-21T05:08:49;25.60;78.80
56322;DHT22;42227;6.376;-10.782;2023-05-21T05:11:19;25.40;80.20
56322;DHT22;42227;6.376;-10.782;2023-05-21T05:13:48;25.30;81.40
56322;DHT22;42227;6.376;-10.782;2023-05-21T05:16:16;25.30;82.20
56322;DHT22;42227;6.376;-10.782;2023-05-21T05:18:44;25.40;83.40
56322;DHT22;42227;6.376;-10.782;2023-05-21T05:21:13;25.70;81.90
56322;DHT22;42227;6.376;-10.782;2023-05-21T05:23:41;25.90;80.00
56322;DHT22;42227;6.376;-10.782;2023-05-21T05:26:10;25.90;77.80
56322;DHT22;42227;6.376;-10.782;2023-05-21T05:28:39;25.60;78.30
56322;DHT22;42227;6.376;-10.782;2023-05-21T05:31:07;25.30;80.00
56322;DHT22;42227;6.376;-10.782;2023-05-21T05:33:36;25.30;80.30
56322;DHT22;42227;6.376;-10.782;2023-05-21T05:36:05;25.30;81.10
56322;DHT22;42227;6.376;-10.782;2023-05-21T05:38:33;25.30;81.50
56322;DHT22;42227;6.376;-10.782;2023-05-21T05:41:03;25.60;81.50
56322;DHT22;42227;6.376;-10.782;2023-05-21T05:43:31;25.90;78.00
56322;DHT22;42227;6.376;-10.782;2023-05-21T05:46:00;25.90;77.40
56322;DHT22;42227;6.376;-10.782;2023-05-21T05:48:29;26.00;76.80
56322;DHT22;42227;6.376;-10.782;2023-05-21T05:50:58;25.70;77.10
56322;DHT22;42227;6.376;-10.782;2023-05-21T05:53:28;25.50;78.00
56322;DHT22;42227;6.376;-10.782;2023-05-21T05:55:56;25.50;78.90
56322;DHT22;42227;6.376;-10.782;2023-05-21T05:58:25;25.40;79.30
56322;DHT22;42227;6.376;-10.782;2023-05-21T06:01:05;25.40;80.00
56322;DHT22;42227;6.376;-10.782;2023-05-21T06:03:34;25.70;80.40
56322;DHT22;42227;6.376;-10.782;2023-05-21T06:06:10;25.80;78.90
56322;DHT22;42227;6.376;-10.782;2023-05-21T06:08:39;25.90;77.80
56322;DHT22;42227;6.376;-10.782;2023-05-21T06:11:08;25.50;78.00
56322;DHT22;42227;6.376;-10.782;2023-05-21T06:13:36;25.40;79.80
56322;DHT22;42227;6.376;-10.782;2023-05-21T06:16:05;25.30;80.70
56322;DHT22;42227;6.376;-10.782;2023-05-21T06:18:34;25.30;81.80
56322;DHT22;42227;6.376;-10.782;2023-05-21T06:21:03;25.40;81.60
56322;DHT22;42227;6.376;-10.782;2023-05-21T06:23:32;25.60;80.60
56322;DHT22;42227;6.376;-10.782;2023-05-21T06:26:00;25.70;80.00
56322;DHT22;42227;6.376;-10.782;2023-05-21T06:28:30;25.90;78.30
56322;DHT22;42227;6.376;-10.782;2023-05-21T06:31:00;25.60;77.70
56322;DHT22;42227;6.376;-10.782;2023-05-21T06:33:30;25.30;79.90
56322;DHT22;42227;6.376;-10.782;2023-05-21T06:35:58;25.20;81.70
56322;DHT22;42227;6.376;-10.782;2023-05-21T06:38:27;25.10;82.10
56322;DHT22;42227;6.376;-10.782;2023-05-21T06:40:55;25.00;83.10
56322;DHT22;42227;6.376;-10.782;2023-05-21T06:43:42;25.10;83.80
56322;DHT22;42227;6.376;-10.782;2023-05-21T06:46:37;25.40;83.50
56322;DHT22;42227;6.376;-10.782;2023-05-21T06:49:07;25.30;81.30
56322;DHT22;42227;6.376;-10.782;2023-05-21T06:51:37;25.30;82.30
56322;DHT22;42227;6.376;-10.782;2023-05-21T06:54:05;25.20;82.20
56322;DHT22;42227;6.376;-10.782;2023-05-21T06:56:35;25.20;82.40
56322;DHT22;42227;6.376;-10.782;2023-05-21T06:59:04;25.30;82.50
56322;DHT22;42227;6.376;-10.782;2023-05-21T07:01:33;25.50;81.30
56322;DHT22;42227;6.376;-10.782;2023-05-21T07:04:02;25.50;80.50
56322;DHT22;42227;6.376;-10.782;2023-05-21T07:06:30;25.70;78.20
56322;DHT22;42227;6.376;-10.782;2023-05-21T07:08:59;25.60;78.70
56322;DHT22;42227;6.376;-10.782;2023-05-21T07:11:29;25.50;78.50
56322;DHT22;42227;6.376;-10.782;2023-05-21T07:13:59;25.50;79.20
56322;DHT22;42227;6.376;-10.782;2023-05-21T07:16:30;25.60;78.70
56322;DHT22;42227;6.376;-10.782;2023-05-21T07:18:59;25.90;78.80
56322;DHT22;42227;6.376;-10.782;2023-05-21T07:21:27;26.50;74.10
56322;DHT22;42227;6.376;-10.782;2023-05-21T07:23:56;26.80;70.10
56322;DHT22;42227;6.376;-10.782;2023-05-21T07:26:24;27.00;69.70
56322;DHT22;42227;6.376;-10.782;2023-05-21T07:28:53;27.10;66.80
56322;DHT22;42227;6.376;-10.782;2023-05-21T07:31:22;27.20;65.90
56322;DHT22;42227;6.376;-10.782;2023-05-21T07:33:51;27.40;65.40
56322;DHT22;42227;6.376;-10.782;2023-05-21T07:36:24;27.60;61.60
56322;DHT22;42227;6.376;-10.782;2023-05-21T07:38:52;27.80;60.00
56322;DHT22;42227;6.376;-10.782;2023-05-21T07:41:21;28.20;57.30
56322;DHT22;42227;6.376;-10.782;2023-05-21T07:43:51;28.30;57.30
56322;DHT22;42227;6.376;-10.782;2023-05-21T07:46:22;27.80;60.10
56322;DHT22;42227;6.376;-10.782;2023-05-21T07:48:54;28.30;59.00
56322;DHT22;42227;6.376;-10.782;2023-05-21T07:51:24;28.70;56.90
56322;DHT22;42227;6.376;-10.782;2023-05-21T07:53:53;29.10;54.70
56322;DHT22;42227;6.376;-10.782;2023-05-21T07:56:29;29.40;51.30
56322;DHT22;42227;6.376;-10.782;2023-05-21T07:58:58;29.80;47.70
56322;DHT22;42227;6.376;-10.782;2023-05-21T08:01:27;30.30;42.50
56322;DHT22;42227;6.376;-10.782;2023-05-21T08:03:55;30.50;40.70
56322;DHT22;42227;6.376;-10.782;2023-05-21T08:06:24;30.90;37.70
56322;DHT22;42227;6.376;-10.782;2023-05-21T08:08:53;30.20;40.70
56322;DHT22;42227;6.376;-10.782;2023-05-21T08:11:22;30.90;42.40
56322;DHT22;42227;6.376;-10.782;2023-05-21T08:13:51;32.70;30.00
56322;DHT22;42227;6.376;-10.782;2023-05-21T08:16:21;32.60;25.70
56322;DHT22;42227;6.376;-10.782;2023-05-21T08:18:50;31.90;33.10
56322;DHT22;42227;6.376;-10.782;2023-05-21T08:21:19;32.40;31.60
56322;DHT22;42227;6.376;-10.782;2023-05-21T08:23:48;36.60;8.70
56322;DHT22;42227;6.376;-10.782;2023-05-21T08:26:19;39.10;1.00
56322;DHT22;42227;6.376;-10.782;2023-05-21T08:28:48;40.10;1.00
56322;DHT22;42227;6.376;-10.782;2023-05-21T08:31:19;40.00;1.00
56322;DHT22;42227;6.376;-10.782;2023-05-21T08:33:51;36.10;1.00
56322;DHT22;42227;6.376;-10.782;2023-05-21T08:36:28;35.50;2.40
56322;DHT22;42227;6.376;-10.782;2023-05-21T08:39:02;36.60;1.00
56322;DHT22;42227;6.376;-10.782;2023-05-21T08:41:35;37.10;1.00
56322;DHT22;42227;6.376;-10.782;2023-05-21T08:44:10;35.90;1.00
56322;DHT22;42227;6.376;-10.782;2023-05-21T08:46:40;38.20;1.00
56322;DHT22;42227;6.376;-10.782;2023-05-21T08:49:11;39.60;1.00
56322;DHT22;42227;6.376;-10.782;2023-05-21T08:51:40;39.50;1.00
56322;DHT22;42227;6.376;-10.782;2023-05-21T08:54:10;38.40;1.00
56322;DHT22;42227;6.376;-10.782;2023-05-21T08:56:39;40.90;1.00
56322;DHT22;42227;6.376;-10.782;2023-05-21T08:59:08;42.10;1.00
56322;DHT22;42227;6.376;-10.782;2023-05-21T09:01:38;40.20;1.00
56322;DHT22;42227;6.376;-10.782;2023-05-21T09:04:16;40.90;1.00
56322;DHT22;42227;6.376;-10.782;2023-05-21T09:06:51;39.50;1.00
56322;DHT22;42227;6.376;-10.782;2023-05-21T09:12:20;41.60;1.00
56322;DHT22;42227;6.376;-10.782;2023-05-21T09:14:49;39.70;1.00
56322;DHT22;42227;6.376;-10.782;2023-05-21T09:17:20;39.20;1.00
56322;DHT22;42227;6.376;-10.782;2023-05-21T09:20:14;38.10;1.00
56322;DHT22;42227;6.376;-10.782;2023-05-21T09:22:53;38.00;1.00
56322;DHT22;42227;6.376;-10.782;2023-05-21T09:25:26;40.10;1.00
56322;DHT22;42227;6.376;-10.782;2023-05-21T09:27:58;40.20;1.00
56322;DHT22;42227;6.376;-10.782;2023-05-21T09:30:27;41.10;1.00
56322;DHT22;42227;6.376;-10.782;2023-05-21T09:32:59;39.00;1.00
56322;DHT22;42227;6.376;-10.782;2023-05-21T09:35:28;38.00;1.00
56322;DHT22;42227;6.376;-10.782;2023-05-21T09:37:56;39.80;1.00
56322;DHT22;42227;6.376;-10.782;2023-05-21T09:40:25;40.60;1.00
56322;DHT22;42227;6.376;-10.782;2023-05-21T09:42:54;41.70;1.00
56322;DHT22;42227;6.376;-10.782;2023-05-21T09:45:25;42.20;1.00
56322;DHT22;42227;6.376;-10.782;2023-05-21T09:47:56;39.20;1.00
56322;DHT22;42227;6.376;-10.782;2023-05-21T09:50:25;37.60;1.00
56322;DHT22;42227;6.376;-10.782;2023-05-21T09:52:54;35.80;1.10
56322;DHT22;42227;6.376;-10.782;2023-05-21T09:55:24;35.60;2.40
56322;DHT22;42227;6.376;-10.782;2023-05-21T09:57:53;35.00;4.10
56322;DHT22;42227;6.376;-10.782;2023-05-21T10:00:24;34.40;9.70
56322;DHT22;42227;6.376;-10.782;2023-05-21T10:02:57;34.20;13.10
56322;DHT22;42227;6.376;-10.782;2023-05-21T10:05:29;34.60;9.80
56322;DHT22;42227;6.376;-10.782;2023-05-21T10:08:02;35.00;6.40
56322;DHT22;42227;6.376;-10.782;2023-05-21T10:10:31;35.10;7.20
56322;DHT22;42227;6.376;-10.782;2023-05-21T10:13:03;35.60;1.70
56322;DHT22;42227;6.376;-10.782;2023-05-21T10:15:37;35.30;3.00
56322;DHT22;42227;6.376;-10.782;2023-05-21T10:18:09;35.20;3.80
56322;DHT22;42227;6.376;-10.782;2023-05-21T10:20:38;34.70;9.20
56322;DHT22;42227;6.376;-10.782;2023-05-21T10:23:07;34.50;9.00
56322;DHT22;42227;6.376;-10.782;2023-05-21T10:25:36;33.90;8.60
56322;DHT22;42227;6.376;-10.782;2023-05-21T10:28:05;33.70;14.20
56322;DHT22;42227;6.376;-10.782;2023-05-21T10:30:35;33.50;9.40
56322;DHT22;42227;6.376;-10.782;2023-05-21T10:33:04;33.20;13.80
56322;DHT22;42227;6.376;-10.782;2023-05-21T10:35:33;34.00;10.90
56322;DHT22;42227;6.376;-10.782;2023-05-21T10:38:07;34.00;10.90
56322;DHT22;42227;6.376;-10.782;2023-05-21T10:40:36;33.20;13.40
56322;DHT22;42227;6.376;-10.782;2023-05-21T10:43:37;32.90;14.40
56322;DHT22;42227;6.376;-10.782;2023-05-21T10:52:06;34.10;10.20
56322;DHT22;42227;6.376;-10.782;2023-05-21T10:57:40;33.80;13.40
56322;DHT22;42227;6.376;-10.782;2023-05-21T11:00:14;34.20;8.00
56322;DHT22;42227;6.376;-10.782;2023-05-21T11:02:43;34.40;7.10
56322;DHT22;42227;6.376;-10.782;2023-05-21T11:05:12;33.90;6.70
56322;DHT22;42227;6.376;-10.782;2023-05-21T11:07:52;34.40;4.80
56322;DHT22;42227;6.376;-10.782;2023-05-21T11:10:30;33.90;10.30
56322;DHT22;42227;6.376;-10.782;2023-05-21T11:13:14;34.30;12.20
56322;DHT22;42227;6.376;-10.782;2023-05-21T11:21:05;34.80;7.50
56322;DHT22;42227;6.376;-10.782;2023-05-21T11:23:53;34.30;3.80
56322;DHT22;42227;6.376;-10.782;2023-05-21T11:29:15;34.30;5.10
56322;DHT22;42227;6.376;-10.782;2023-05-21T11:31:46;34.80;1.00
56322;DHT22;42227;6.376;-10.782;2023-05-21T11:34:19;34.70;6.30
56322;DHT22;42227;6.376;-10.782;2023-05-21T11:36:48;34.50;1.00
56322;DHT22;42227;6.376;-10.782;2023-05-21T11:39:38;34.00;3.80
56322;DHT22;42227;6.376;-10.782;2023-05-21T11:42:07;34.40;8.80
56322;DHT22;42227;6.376;-10.782;2023-05-21T11:44:45;33.90;13.20
56322;DHT22;42227;6.376;-10.782;2023-05-21T11:47:16;34.30;12.50
56322;DHT22;42227;6.376;-10.782;2023-05-21T11:49:45;33.80;10.30
56322;DHT22;42227;6.376;-10.782;2023-05-21T11:52:14;33.50;16.30
56322;DHT22;42227;6.376;-10.782;2023-05-21T11:54:44;33.10;16.90
56322;DHT22;42227;6.376;-10.782;2023-05-21T11:57:13;32.90;20.00
56322;DHT22;42227;6.376;-10.782;2023-05-21T11:59:42;32.50;22.70
56322;DHT22;42227;6.376;-10.782;2023-05-21T12:02:14;32.40;22.20
56322;DHT22;42227;6.376;-10.782;2023-05-21T12:04:44;32.90;23.00
56322;DHT22;42227;6.376;-10.782;2023-05-21T12:07:14;33.60;22.00
56322;DHT22;42227;6.376;-10.782;2023-05-21T12:12:17;34.20;16.30
56322;DHT22;42227;6.376;-10.782;2023-05-21T12:14:50;34.00;15.80
56322;DHT22;42227;6.376;-10.782;2023-05-21T12:17:21;34.10;17.20
56322;DHT22;42227;6.376;-10.782;2023-05-21T12:19:51;34.10;16.10
56322;DHT22;42227;6.376;-10.782;2023-05-21T12:22:21;34.50;12.70
56322;DHT22;42227;6.376;-10.782;2023-05-21T12:24:50;34.40;11.00
56322;DHT22;42227;6.376;-10.782;2023-05-21T12:27:20;34.10;14.60
56322;DHT22;42227;6.376;-10.782;2023-05-21T12:29:49;33.70;20.00
56322;DHT22;42227;6.376;-10.782;2023-05-21T12:32:19;33.60;20.10
56322;DHT22;42227;6.376;-10.782;2023-05-21T12:34:52;33.70;15.80
56322;DHT22;42227;6.376;-10.782;2023-05-21T12:39:52;33.90;17.90
56322;DHT22;42227;6.376;-10.782;2023-05-21T12:42:31;34.10;15.90
56322;DHT22;42227;6.376;-10.782;2023-05-21T12:45:06;33.90;14.50
56322;DHT22;42227;6.376;-10.782;2023-05-21T12:47:35;33.90;19.50
56322;DHT22;42227;6.376;-10.782;2023-05-21T12:50:07;33.90;17.50
56322;DHT22;42227;6.376;-10.782;2023-05-21T12:52:36;33.70;19.60
56322;DHT22;42227;6.376;-10.782;2023-05-21T12:55:04;33.80;17.10
56322;DHT22;42227;6.376;-10.782;2023-05-21T12:57:36;33.50;18.50
56322;DHT22;42227;6.376;-10.782;2023-05-21T13:00:05;33.40;19.20
56322;DHT22;42227;6.376;-10.782;2023-05-21T13:02:42;33.30;21.10
56322;DHT22;42227;6.376;-10.782;2023-05-21T13:05:18;33.30;24.50
56322;DHT22;42227;6.376;-10.782;2023-05-21T13:07:46;33.70;21.60
56322;DHT22;42227;6.376;-10.782;2023-05-21T13:10:15;33.70;17.60
56322;DHT22;42227;6.376;-10.782;2023-05-21T13:12:44;33.70;19.10
56322;DHT22;42227;6.376;-10.782;2023-05-21T13:15:13;33.40;19.30
56322;DHT22;42227;6.376;-10.782;2023-05-21T13:17:41;33.10;24.00
56322;DHT22;42227;6.376;-10.782;2023-05-21T13:20:15;33.00;26.50
56322;DHT22;42227;6.376;-10.782;2023-05-21T13:22:48;33.00;27.10
56322;DHT22;42227;6.376;-10.782;2023-05-21T13:25:19;33.20;24.80
56322;DHT22;42227;6.376;-10.782;2023-05-21T13:27:49;33.40;20.80
56322;DHT22;42227;6.376;-10.782;2023-05-21T13:30:19;33.60;20.30
56322;DHT22;42227;6.376;-10.782;2023-05-21T13:32:48;33.70;23.30
56322;DHT22;42227;6.376;-10.782;2023-05-21T13:35:17;33.80;21.40
56322;DHT22;42227;6.376;-10.782;2023-05-21T13:37:45;33.70;22.90
56322;DHT22;42227;6.376;-10.782;2023-05-21T13:40:15;33.60;23.70
56322;DHT22;42227;6.376;-10.782;2023-05-21T13:42:45;34.10;20.70
56322;DHT22;42227;6.376;-10.782;2023-05-21T13:45:17;33.80;19.40
56322;DHT22;42227;6.376;-10.782;2023-05-21T13:47:47;33.60;20.90
56322;DHT22;42227;6.376;-10.782;2023-05-21T13:50:15;33.70;19.70
56322;DHT22;42227;6.376;-10.782;2023-05-21T13:52:44;33.70;21.50
56322;DHT22;42227;6.376;-10.782;2023-05-21T13:55:13;33.90;17.80
56322;DHT22;42227;6.376;-10.782;2023-05-21T13:57:42;33.80;19.80
56322;DHT22;42227;6.376;-10.782;2023-05-21T14:00:11;33.60;23.70
56322;DHT22;42227;6.376;-10.782;2023-05-21T14:02:41;33.90;21.20
56322;DHT22;42227;6.376;-10.782;2023-05-21T14:05:11;34.00;20.30
56322;DHT22;42227;6.376;-10.782;2023-05-21T14:07:40;33.70;22.20
56322;DHT22;42227;6.376;-10.782;2023-05-21T14:10:09;33.70;20.80
56322;DHT22;42227;6.376;-10.782;2023-05-21T14:12:38;33.80;16.50
56322;DHT22;42227;6.376;-10.782;2023-05-21T14:15:07;33.90;22.80
56322;DHT22;42227;6.376;-10.782;2023-05-21T14:17:35;34.20;21.10
56322;DHT22;42227;6.376;-10.782;2023-05-21T14:23:14;33.60;19.00
56322;DHT22;42227;6.376;-10.782;2023-05-21T14:25:43;33.00;23.00
56322;DHT22;42227;6.376;-10.782;2023-05-21T14:28:12;32.90;24.20
56322;DHT22;42227;6.376;-10.782;2023-05-21T14:30:40;33.10;21.60
56322;DHT22;42227;6.376;-10.782;2023-05-21T14:33:09;33.10;23.30
56322;DHT22;42227;6.376;-10.782;2023-05-21T14:35:37;33.00;18.50
56322;DHT22;42227;6.376;-10.782;2023-05-21T14:38:06;32.80;21.30
56322;DHT22;42227;6.376;-10.782;2023-05-21T14:40:34;32.50;21.40
56322;DHT22;42227;6.376;-10.782;2023-05-21T14:43:03;32.50;24.40
56322;DHT22;42227;6.376;-10.782;2023-05-21T14:45:31;32.50;24.30
56322;DHT22;42227;6.376;-10.782;2023-05-21T14:48:01;32.60;23.60
56322;DHT22;42227;6.376;-10.782;2023-05-21T14:50:31;32.40;23.10
56322;DHT22;42227;6.376;-10.782;2023-05-21T14:53:06;32.00;25.70
56322;DHT22;42227;6.376;-10.782;2023-05-21T14:55:35;32.30;25.50
56322;DHT22;42227;6.376;-10.782;2023-05-21T14:58:05;32.30;24.60
56322;DHT22;42227;6.376;-10.782;2023-05-21T15:00:35;32.20;27.80
56322;DHT22;42227;6.376;-10.782;2023-05-21T15:03:04;32.00;27.00
56322;DHT22;42227;6.376;-10.782;2023-05-21T15:05:33;32.40;22.90
56322;DHT22;42227;6.376;-10.782;2023-05-21T15:10:47;32.70;19.90
56322;DHT22;42227;6.376;-10.782;2023-05-21T15:13:15;32.50;23.40
56322;DHT22;42227;6.376;-10.782;2023-05-21T15:15:43;32.30;21.50
56322;DHT22;42227;6.376;-10.782;2023-05-21T15:18:12;32.50;24.20
56322;DHT22;42227;6.376;-10.782;2023-05-21T15:20:40;32.90;23.40
56322;DHT22;42227;6.376;-10.782;2023-05-21T15:23:09;33.10;17.10
56322;DHT22;42227;6.376;-10.782;2023-05-21T15:25:40;33.00;19.60
56322;DHT22;42227;6.376;-10.782;2023-05-21T15:28:09;32.50;19.70
56322;DHT22;42227;6.376;-10.782;2023-05-21T15:30:37;32.20;21.80
56322;DHT22;42227;6.376;-10.782;2023-05-21T15:33:06;32.40;23.30
56322;DHT22;42227;6.376;-10.782;2023-05-21T15:35:35;32.80;20.10
56322;DHT22;42227;6.376;-10.782;2023-05-21T15:38:04;33.10;20.20
56322;DHT22;42227;6.376;-10.782;2023-05-21T15:40:33;33.00;21.40
56322;DHT22;42227;6.376;-10.782;2023-05-21T15:43:01;32.90;19.20
56322;DHT22;42227;6.376;-10.782;2023-05-21T15:45:30;32.60;21.90
56322;DHT22;42227;6.376;-10.782;2023-05-21T15:47:58;32.40;22.00
56322;DHT22;42227;6.376;-10.782;2023-05-21T15:50:27;32.50;24.00
56322;DHT22;42227;6.376;-10.782;2023-05-21T15:52:55;32.80;17.40
56322;DHT22;42227;6.376;-10.782;2023-05-21T15:55:24;32.90;17.50
56322;DHT22;42227;6.376;-10.782;2023-05-21T15:57:52;33.10;19.00
56322;DHT22;42227;6.376;-10.782;2023-05-21T16:00:21;33.20;16.90
56322;DHT22;42227;6.376;-10.782;2023-05-21T16:02:49;32.90;18.70
56322;DHT22;42227;6.376;-10.782;2023-05-21T16:05:18;32.90;19.70
56322;DHT22;42227;6.376;-10.782;2023-05-21T16:07:46;32.90;19.10
56322;DHT22;42227;6.376;-10.782;2023-05-21T16:10:15;32.80;20.30